sensor_id;sensor_type;location;lat;lon;timestamp;P1;durP1;ratioP1;P2;durP2;ratioP2
17753;SDS011;8999;48.994;9.150;2022-08-19T00:01:40;13.70;;;12.25;;
17753;SDS011;8999;48.994;9.150;2022-08-19T00:04:14;13.52;;;12.13;;
17753;SDS011;8999;48.994;9.150;2022-08-19T00:06:48;14.43;;;12.77;;
17753;SDS011;8999;48.994;9.150;2022-08-19T00:09:20;14.63;;;12.43;;
17753;SDS011;8999;48.994;9.150;2022-08-19T00:11:53;13.98;;;12.48;;
17753;SDS011;8999;48.994;9.150;2022-08-19T00:14:26;14.50;;;12.77;;
17753;SDS011;8999;48.994;9.150;2022-08-19T00:17:01;14.90;;;12.38;;
17753;SDS011;8999;48.994;9.150;2022-08-19T00:19:35;17.38;;;12.23;;
17753;SDS011;8999;48.994;9.150;2022-08-19T00:22:08;17.02;;;11.95;;
17753;SDS011;8999;48.994;9.150;2022-08-19T00:24:39;14.07;;;12.35;;
17753;SDS011;8999;48.994;9.150;2022-08-19T00:27:13;16.13;;;13.45;;
17753;SDS011;8999;48.994;9.150;2022-08-19T00:29:46;13.50;;;12.10;;
17753;SDS011;8999;48.994;9.150;2022-08-19T00:32:17;13.73;;;12.30;;
17753;SDS011;8999;48.994;9.150;2022-08-19T00:34:49;12.82;;;11.52;;
17753;SDS011;8999;48.994;9.150;2022-08-19T00:37:24;14.45;;;12.48;;
17753;SDS011;8999;48.994;9.150;2022-08-19T00:39:56;14.15;;;12.75;;
17753;SDS011;8999;48.994;9.150;2022-08-19T00:42:28;13.75;;;12.25;;
17753;SDS011;8999;48.994;9.150;2022-08-19T00:45:00;14.07;;;12.57;;
17753;SDS011;8999;48.994;9.150;2022-08-19T00:47:32;13.85;;;12.38;;
17753;SDS011;8999;48.994;9.150;2022-08-19T00:50:04;15.10;;;12.60;;
17753;SDS011;8999;48.994;9.150;2022-08-19T00:52:39;14.63;;;13.13;;
17753;SDS011;8999;48.994;9.150;2022-08-19T00:55:16;16.77;;;12.32;;
17753;SDS011;8999;48.994;9.150;2022-08-19T00:57:51;13.85;;;12.43;;
17753;SDS011;8999;48.994;9.150;2022-08-19T01:00:25;15.43;;;13.43;;
17753;SDS011;8999;48.994;9.150;2022-08-19T01:02:58;13.38;;;11.98;;
17753;SDS011;8999;48.994;9.150;2022-08-19T01:05:30;13.23;;;11.82;;
17753;SDS011;8999;48.994;9.150;2022-08-19T01:08:04;13.48;;;12.07;;
17753;SDS011;8999;48.994;9.150;2022-08-19T01:10:37;13.70;;;12.40;;
17753;SDS011;8999;48.994;9.150;2022-08-19T01:13:13;14.93;;;12.38;;
17753;SDS011;8999;48.994;9.150;2022-08-19T01:15:47;13.93;;;12.52;;
17753;SDS011;8999;48.994;9.150;2022-08-19T01:18:20;14.80;;;13.23;;
17753;SDS011;8999;48.994;9.150;2022-08-19T01:20:52;15.10;;;12.18;;
17753;SDS011;8999;48.994;9.150;2022-08-19T01:23:27;15.10;;;12.70;;
17753;SDS011;8999;48.994;9.150;2022-08-19T01:26:13;14.00;;;12.57;;
17753;SDS011;8999;48.994;9.150;2022-08-19T01:28:46;13.90;;;12.48;;
17753;SDS011;8999;48.994;9.150;2022-08-19T01:31:21;13.57;;;12.27;;
17753;SDS011;8999;48.994;9.150;2022-08-19T01:33:54;13.73;;;11.95;;
17753;SDS011;8999;48.994;9.150;2022-08-19T01:36:28;13.70;;;12.30;;
17753;SDS011;8999;48.994;9.150;2022-08-19T01:39:04;14.20;;;12.15;;
17753;SDS011;8999;48.994;9.150;2022-08-19T01:41:39;14.27;;;12.77;;
17753;SDS011;8999;48.994;9.150;2022-08-19T01:44:10;14.45;;;12.48;;
17753;SDS011;8999;48.994;9.150;2022-08-19T01:46:42;13.25;;;11.82;;
17753;SDS011;8999;48.994;9.150;2022-08-19T01:49:15;14.65;;;12.50;;
17753;SDS011;8999;48.994;9.150;2022-08-19T01:51:47;13.68;;;12.35;;
17753;SDS011;8999;48.994;9.150;2022-08-19T01:54:22;14.50;;;12.73;;
17753;SDS011;8999;48.994;9.150;2022-08-19T01:56:56;13.48;;;12.07;;
17753;SDS011;8999;48.994;9.150;2022-08-19T01:59:29;14.90;;;12.80;;
17753;SDS011;8999;48.994;9.150;2022-08-19T02:02:01;13.43;;;11.95;;
17753;SDS011;8999;48.994;9.150;2022-08-19T02:04:33;15.30;;;13.50;;
17753;SDS011;8999;48.994;9.150;2022-08-19T02:07:05;14.50;;;12.63;;
17753;SDS011;8999;48.994;9.150;2022-08-19T02:09:39;14.90;;;13.30;;
17753;SDS011;8999;48.994;9.150;2022-08-19T02:12:11;14.98;;;13.30;;
17753;SDS011;8999;48.994;9.150;2022-08-19T02:14:42;15.20;;;13.57;;
17753;SDS011;8999;48.994;9.150;2022-08-19T02:17:14;14.57;;;13.02;;
17753;SDS011;8999;48.994;9.150;2022-08-19T02:19:45;15.35;;;12.98;;
17753;SDS011;8999;48.994;9.150;2022-08-19T02:22:18;15.60;;;13.85;;
17753;SDS011;8999;48.994;9.150;2022-08-19T02:24:52;17.90;;;14.48;;
17753;SDS011;8999;48.994;9.150;2022-08-19T02:27:24;19.95;;;15.68;;
17753;SDS011;8999;48.994;9.150;2022-08-19T02:29:56;17.70;;;15.57;;
17753;SDS011;8999;48.994;9.150;2022-08-19T02:32:27;17.25;;;15.25;;
17753;SDS011;8999;48.994;9.150;2022-08-19T02:35:00;21.23;;;16.23;;
17753;SDS011;8999;48.994;9.150;2022-08-19T02:37:32;41.40;;;28.67;;
17753;SDS011;8999;48.994;9.150;2022-08-19T02:40:23;20.17;;;16.50;;
17753;SDS011;8999;48.994;9.150;2022-08-19T02:42:54;19.98;;;16.15;;
17753;SDS011;8999;48.994;9.150;2022-08-19T02:45:26;20.55;;;16.25;;
17753;SDS011;8999;48.994;9.150;2022-08-19T02:47:58;18.55;;;16.50;;
17753;SDS011;8999;48.994;9.150;2022-08-19T02:50:29;19.23;;;16.05;;
17753;SDS011;8999;48.994;9.150;2022-08-19T02:53:01;21.98;;;16.20;;
17753;SDS011;8999;48.994;9.150;2022-08-19T02:55:34;21.90;;;16.58;;
17753;SDS011;8999;48.994;9.150;2022-08-19T02:58:06;32.20;;;23.60;;
17753;SDS011;8999;48.994;9.150;2022-08-19T03:00:41;26.08;;;17.27;;
17753;SDS011;8999;48.994;9.150;2022-08-19T03:03:13;20.25;;;16.00;;
17753;SDS011;8999;48.994;9.150;2022-08-19T03:05:45;19.75;;;16.27;;
17753;SDS011;8999;48.994;9.150;2022-08-19T03:08:17;20.98;;;16.50;;
17753;SDS011;8999;48.994;9.150;2022-08-19T03:10:50;24.92;;;17.38;;
17753;SDS011;8999;48.994;9.150;2022-08-19T03:13:22;23.95;;;17.83;;
17753;SDS011;8999;48.994;9.150;2022-08-19T03:15:54;19.40;;;16.77;;
17753;SDS011;8999;48.994;9.150;2022-08-19T03:18:26;26.40;;;21.02;;
17753;SDS011;8999;48.994;9.150;2022-08-19T03:20:58;19.65;;;16.50;;
17753;SDS011;8999;48.994;9.150;2022-08-19T03:23:30;22.08;;;17.77;;
17753;SDS011;8999;48.994;9.150;2022-08-19T03:26:04;21.52;;;17.40;;
17753;SDS011;8999;48.994;9.150;2022-08-19T03:28:37;21.25;;;17.83;;
17753;SDS011;8999;48.994;9.150;2022-08-19T03:31:10;23.15;;;18.02;;
17753;SDS011;8999;48.994;9.150;2022-08-19T03:33:44;24.00;;;18.23;;
17753;SDS011;8999;48.994;9.150;2022-08-19T03:36:16;21.00;;;18.63;;
17753;SDS011;8999;48.994;9.150;2022-08-19T03:38:51;21.67;;;18.67;;
17753;SDS011;8999;48.994;9.150;2022-08-19T03:41:27;22.77;;;18.73;;
17753;SDS011;8999;48.994;9.150;2022-08-19T03:44:00;23.02;;;18.45;;
17753;SDS011;8999;48.994;9.150;2022-08-19T03:46:32;22.60;;;18.15;;
17753;SDS011;8999;48.994;9.150;2022-08-19T03:49:04;26.30;;;18.38;;
17753;SDS011;8999;48.994;9.150;2022-08-19T03:51:38;22.58;;;18.63;;
17753;SDS011;8999;48.994;9.150;2022-08-19T03:54:10;25.65;;;19.40;;
17753;SDS011;8999;48.994;9.150;2022-08-19T03:56:45;21.77;;;18.65;;
17753;SDS011;8999;48.994;9.150;2022-08-19T03:59:19;21.65;;;18.45;;
17753;SDS011;8999;48.994;9.150;2022-08-19T04:01:56;23.83;;;18.27;;
17753;SDS011;8999;48.994;9.150;2022-08-19T04:04:28;24.48;;;19.50;;
17753;SDS011;8999;48.994;9.150;2022-08-19T04:07:00;23.45;;;18.73;;
17753;SDS011;8999;48.994;9.150;2022-08-19T04:09:32;21.55;;;17.52;;
17753;SDS011;8999;48.994;9.150;2022-08-19T04:12:06;21.60;;;18.92;;
17753;SDS011;8999;48.994;9.150;2022-08-19T04:14:39;23.77;;;19.00;;
17753;SDS011;8999;48.994;9.150;2022-08-19T04:17:10;20.73;;;17.85;;
17753;SDS011;8999;48.994;9.150;2022-08-19T04:19:42;22.02;;;18.98;;
17753;SDS011;8999;48.994;9.150;2022-08-19T04:22:14;23.30;;;18.80;;
17753;SDS011;8999;48.994;9.150;2022-08-19T04:24:46;23.98;;;20.13;;
17753;SDS011;8999;48.994;9.150;2022-08-19T04:27:19;26.30;;;21.15;;
17753;SDS011;8999;48.994;9.150;2022-08-19T04:29:53;23.40;;;19.40;;
17753;SDS011;8999;48.994;9.150;2022-08-19T04:32:25;22.35;;;18.95;;
17753;SDS011;8999;48.994;9.150;2022-08-19T04:34:57;26.77;;;20.85;;
17753;SDS011;8999;48.994;9.150;2022-08-19T04:37:29;23.10;;;19.02;;
17753;SDS011;8999;48.994;9.150;2022-08-19T04:40:04;24.30;;;18.33;;
17753;SDS011;8999;48.994;9.150;2022-08-19T04:42:55;24.20;;;19.48;;
17753;SDS011;8999;48.994;9.150;2022-08-19T04:45:27;22.67;;;19.17;;
17753;SDS011;8999;48.994;9.150;2022-08-19T04:47:58;22.30;;;18.83;;
17753;SDS011;8999;48.994;9.150;2022-08-19T04:50:31;23.02;;;18.60;;
17753;SDS011;8999;48.994;9.150;2022-08-19T04:53:03;22.63;;;18.95;;
17753;SDS011;8999;48.994;9.150;2022-08-19T04:55:37;21.90;;;18.15;;
17753;SDS011;8999;48.994;9.150;2022-08-19T04:58:11;23.58;;;19.52;;
17753;SDS011;8999;48.994;9.150;2022-08-19T05:00:43;25.02;;;19.35;;
17753;SDS011;8999;48.994;9.150;2022-08-19T05:03:14;27.88;;;18.80;;
17753;SDS011;8999;48.994;9.150;2022-08-19T05:05:47;23.25;;;18.67;;
17753;SDS011;8999;48.994;9.150;2022-08-19T05:08:20;22.13;;;18.52;;
17753;SDS011;8999;48.994;9.150;2022-08-19T05:10:52;23.00;;;20.00;;
17753;SDS011;8999;48.994;9.150;2022-08-19T05:13:25;22.50;;;18.60;;
17753;SDS011;8999;48.994;9.150;2022-08-19T05:15:58;23.35;;;19.45;;
17753;SDS011;8999;48.994;9.150;2022-08-19T05:18:30;23.10;;;18.80;;
17753;SDS011;8999;48.994;9.150;2022-08-19T05:21:19;23.77;;;19.98;;
17753;SDS011;8999;48.994;9.150;2022-08-19T05:24:09;22.85;;;19.23;;
17753;SDS011;8999;48.994;9.150;2022-08-19T05:26:43;22.98;;;18.98;;
17753;SDS011;8999;48.994;9.150;2022-08-19T05:29:18;23.25;;;18.60;;
17753;SDS011;8999;48.994;9.150;2022-08-19T05:31:51;24.95;;;18.95;;
17753;SDS011;8999;48.994;9.150;2022-08-19T05:34:24;31.48;;;20.05;;
17753;SDS011;8999;48.994;9.150;2022-08-19T05:36:56;21.77;;;18.55;;
17753;SDS011;8999;48.994;9.150;2022-08-19T05:39:29;21.88;;;17.80;;
17753;SDS011;8999;48.994;9.150;2022-08-19T05:42:02;20.63;;;18.48;;
17753;SDS011;8999;48.994;9.150;2022-08-19T05:44:39;24.45;;;19.70;;
17753;SDS011;8999;48.994;9.150;2022-08-19T05:47:13;22.10;;;19.10;;
17753;SDS011;8999;48.994;9.150;2022-08-19T05:49:45;26.30;;;20.38;;
17753;SDS011;8999;48.994;9.150;2022-08-19T05:52:17;21.95;;;18.42;;
17753;SDS011;8999;48.994;9.150;2022-08-19T05:54:50;25.05;;;19.55;;
17753;SDS011;8999;48.994;9.150;2022-08-19T05:57:22;23.42;;;18.58;;
17753;SDS011;8999;48.994;9.150;2022-08-19T05:59:55;21.25;;;17.05;;
17753;SDS011;8999;48.994;9.150;2022-08-19T06:02:27;22.67;;;18.92;;
17753;SDS011;8999;48.994;9.150;2022-08-19T06:05:00;25.23;;;18.17;;
17753;SDS011;8999;48.994;9.150;2022-08-19T06:07:32;21.38;;;18.55;;
17753;SDS011;8999;48.994;9.150;2022-08-19T06:10:04;20.15;;;17.48;;
17753;SDS011;8999;48.994;9.150;2022-08-19T06:12:37;22.23;;;17.92;;
17753;SDS011;8999;48.994;9.150;2022-08-19T06:15:11;21.08;;;18.70;;
17753;SDS011;8999;48.994;9.150;2022-08-19T06:17:43;20.65;;;16.45;;
17753;SDS011;8999;48.994;9.150;2022-08-19T06:20:15;18.80;;;16.80;;
17753;SDS011;8999;48.994;9.150;2022-08-19T06:22:48;19.83;;;16.48;;
17753;SDS011;8999;48.994;9.150;2022-08-19T06:25:21;20.10;;;17.85;;
17753;SDS011;8999;48.994;9.150;2022-08-19T06:27:53;18.98;;;16.77;;
17753;SDS011;8999;48.994;9.150;2022-08-19T06:30:26;20.05;;;16.30;;
17753;SDS011;8999;48.994;9.150;2022-08-19T06:32:57;20.48;;;17.80;;
17753;SDS011;8999;48.994;9.150;2022-08-19T06:35:29;20.40;;;17.23;;
17753;SDS011;8999;48.994;9.150;2022-08-19T06:38:01;19.65;;;17.52;;
17753;SDS011;8999;48.994;9.150;2022-08-19T06:40:33;19.83;;;16.95;;
17753;SDS011;8999;48.994;9.150;2022-08-19T06:43:05;19.75;;;17.27;;
17753;SDS011;8999;48.994;9.150;2022-08-19T06:45:38;18.40;;;16.30;;
17753;SDS011;8999;48.994;9.150;2022-08-19T06:48:10;21.77;;;17.08;;
17753;SDS011;8999;48.994;9.150;2022-08-19T06:50:41;20.33;;;16.83;;
17753;SDS011;8999;48.994;9.150;2022-08-19T06:53:13;19.10;;;17.02;;
17753;SDS011;8999;48.994;9.150;2022-08-19T06:55:45;21.15;;;17.02;;
17753;SDS011;8999;48.994;9.150;2022-08-19T06:58:16;21.67;;;16.95;;
17753;SDS011;8999;48.994;9.150;2022-08-19T07:00:49;19.23;;;16.67;;
17753;SDS011;8999;48.994;9.150;2022-08-19T07:03:21;18.08;;;16.20;;
17753;SDS011;8999;48.994;9.150;2022-08-19T07:05:52;19.48;;;16.50;;
17753;SDS011;8999;48.994;9.150;2022-08-19T07:08:24;20.08;;;16.52;;
17753;SDS011;8999;48.994;9.150;2022-08-19T07:10:57;19.75;;;17.40;;
17753;SDS011;8999;48.994;9.150;2022-08-19T07:13:28;22.60;;;17.73;;
17753;SDS011;8999;48.994;9.150;2022-08-19T07:16:07;20.05;;;17.83;;
17753;SDS011;8999;48.994;9.150;2022-08-19T07:18:39;21.40;;;17.67;;
17753;SDS011;8999;48.994;9.150;2022-08-19T07:21:12;20.02;;;17.83;;
17753;SDS011;8999;48.994;9.150;2022-08-19T07:23:44;19.50;;;17.13;;
17753;SDS011;8999;48.994;9.150;2022-08-19T07:26:17;19.90;;;17.33;;
17753;SDS011;8999;48.994;9.150;2022-08-19T07:28:50;20.42;;;17.30;;
17753;SDS011;8999;48.994;9.150;2022-08-19T07:31:25;19.92;;;17.58;;
17753;SDS011;8999;48.994;9.150;2022-08-19T07:33:57;20.55;;;16.70;;
17753;SDS011;8999;48.994;9.150;2022-08-19T07:36:29;18.63;;;16.52;;
17753;SDS011;8999;48.994;9.150;2022-08-19T07:39:03;20.75;;;16.13;;
17753;SDS011;8999;48.994;9.150;2022-08-19T07:41:37;19.02;;;16.58;;
17753;SDS011;8999;48.994;9.150;2022-08-19T07:44:09;20.13;;;16.52;;
17753;SDS011;8999;48.994;9.150;2022-08-19T07:46:44;17.23;;;15.23;;
17753;SDS011;8999;48.994;9.150;2022-08-19T07:49:20;19.00;;;16.80;;
17753;SDS011;8999;48.994;9.150;2022-08-19T07:51:53;20.00;;;15.75;;
17753;SDS011;8999;48.994;9.150;2022-08-19T07:54:27;18.10;;;14.98;;
17753;SDS011;8999;48.994;9.150;2022-08-19T07:57:00;20.02;;;16.00;;
17753;SDS011;8999;48.994;9.150;2022-08-19T07:59:33;19.20;;;14.75;;
17753;SDS011;8999;48.994;9.150;2022-08-19T08:02:06;19.77;;;15.25;;
17753;SDS011;8999;48.994;9.150;2022-08-19T08:04:39;18.65;;;15.48;;
17753;SDS011;8999;48.994;9.150;2022-08-19T08:07:28;19.75;;;15.32;;
17753;SDS011;8999;48.994;9.150;2022-08-19T08:10:17;18.23;;;15.52;;
17753;SDS011;8999;48.994;9.150;2022-08-19T08:12:49;18.05;;;14.63;;
17753;SDS011;8999;48.994;9.150;2022-08-19T08:15:20;18.42;;;16.35;;
17753;SDS011;8999;48.994;9.150;2022-08-19T08:17:55;20.77;;;16.20;;
17753;SDS011;8999;48.994;9.150;2022-08-19T08:20:30;17.52;;;15.23;;
17753;SDS011;8999;48.994;9.150;2022-08-19T08:23:02;17.95;;;15.10;;
17753;SDS011;8999;48.994;9.150;2022-08-19T08:25:52;19.48;;;14.73;;
17753;SDS011;8999;48.994;9.150;2022-08-19T08:28:26;19.17;;;14.60;;
17753;SDS011;8999;48.994;9.150;2022-08-19T08:30:59;16.55;;;14.80;;
17753;SDS011;8999;48.994;9.150;2022-08-19T08:33:32;20.85;;;15.82;;
17753;SDS011;8999;48.994;9.150;2022-08-19T08:36:04;20.02;;;16.23;;
17753;SDS011;8999;48.994;9.150;2022-08-19T08:38:36;17.23;;;15.30;;
17753;SDS011;8999;48.994;9.150;2022-08-19T08:41:09;21.08;;;15.95;;
17753;SDS011;8999;48.994;9.150;2022-08-19T08:43:50;18.40;;;15.30;;
17753;SDS011;8999;48.994;9.150;2022-08-19T08:46:24;17.88;;;14.70;;
17753;SDS011;8999;48.994;9.150;2022-08-19T08:49:02;17.70;;;15.05;;
17753;SDS011;8999;48.994;9.150;2022-08-19T08:51:39;16.05;;;14.05;;
17753;SDS011;8999;48.994;9.150;2022-08-19T08:54:19;16.85;;;13.85;;
17753;SDS011;8999;48.994;9.150;2022-08-19T08:56:52;18.08;;;14.00;;
17753;SDS011;8999;48.994;9.150;2022-08-19T08:59:26;15.85;;;14.05;;
17753;SDS011;8999;48.994;9.150;2022-08-19T09:02:02;18.67;;;14.43;;
17753;SDS011;8999;48.994;9.150;2022-08-19T09:04:35;18.15;;;12.63;;
17753;SDS011;8999;48.994;9.150;2022-08-19T09:07:14;17.50;;;14.05;;
17753;SDS011;8999;48.994;9.150;2022-08-19T09:09:55;13.82;;;12.43;;
17753;SDS011;8999;48.994;9.150;2022-08-19T09:12:34;15.85;;;13.52;;
17753;SDS011;8999;48.994;9.150;2022-08-19T09:15:10;16.17;;;12.80;;
17753;SDS011;8999;48.994;9.150;2022-08-19T09:17:43;14.32;;;11.98;;
17753;SDS011;8999;48.994;9.150;2022-08-19T09:20:18;15.32;;;12.50;;
17753;SDS011;8999;48.994;9.150;2022-08-19T09:22:51;16.70;;;12.63;;
17753;SDS011;8999;48.994;9.150;2022-08-19T09:25:23;13.20;;;11.80;;
17753;SDS011;8999;48.994;9.150;2022-08-19T09:27:55;13.38;;;11.18;;
17753;SDS011;8999;48.994;9.150;2022-08-19T09:30:27;16.77;;;11.85;;
17753;SDS011;8999;48.994;9.150;2022-08-19T09:33:00;14.55;;;11.10;;
17753;SDS011;8999;48.994;9.150;2022-08-19T09:35:33;13.02;;;10.50;;
17753;SDS011;8999;48.994;9.150;2022-08-19T09:38:05;14.35;;;11.85;;
17753;SDS011;8999;48.994;9.150;2022-08-19T09:40:37;16.85;;;11.85;;
17753;SDS011;8999;48.994;9.150;2022-08-19T09:43:09;12.10;;;10.30;;
17753;SDS011;8999;48.994;9.150;2022-08-19T09:45:41;16.70;;;11.95;;
17753;SDS011;8999;48.994;9.150;2022-08-19T09:48:12;14.63;;;11.50;;
17753;SDS011;8999;48.994;9.150;2022-08-19T09:50:45;12.55;;;11.15;;
17753;SDS011;8999;48.994;9.150;2022-08-19T09:53:17;14.40;;;11.63;;
17753;SDS011;8999;48.994;9.150;2022-08-19T09:55:49;13.30;;;10.65;;
17753;SDS011;8999;48.994;9.150;2022-08-19T09:58:21;14.45;;;10.98;;
17753;SDS011;8999;48.994;9.150;2022-08-19T10:00:57;12.90;;;11.02;;
17753;SDS011;8999;48.994;9.150;2022-08-19T10:03:29;13.80;;;10.13;;
17753;SDS011;8999;48.994;9.150;2022-08-19T10:06:04;13.77;;;10.43;;
17753;SDS011;8999;48.994;9.150;2022-08-19T10:08:36;12.73;;;9.25;;
17753;SDS011;8999;48.994;9.150;2022-08-19T10:11:09;12.30;;;9.77;;
17753;SDS011;8999;48.994;9.150;2022-08-19T10:13:41;12.45;;;8.82;;
17753;SDS011;8999;48.994;9.150;2022-08-19T10:16:14;9.25;;;7.93;;
17753;SDS011;8999;48.994;9.150;2022-08-19T10:18:47;12.55;;;9.30;;
17753;SDS011;8999;48.994;9.150;2022-08-19T10:21:21;10.25;;;8.45;;
17753;SDS011;8999;48.994;9.150;2022-08-19T10:23:55;10.68;;;7.63;;
17753;SDS011;8999;48.994;9.150;2022-08-19T10:26:29;8.20;;;7.35;;
17753;SDS011;8999;48.994;9.150;2022-08-19T10:29:02;8.10;;;5.70;;
17753;SDS011;8999;48.994;9.150;2022-08-19T10:31:35;10.18;;;5.53;;
17753;SDS011;8999;48.994;9.150;2022-08-19T10:34:07;7.05;;;5.28;;
17753;SDS011;8999;48.994;9.150;2022-08-19T10:36:40;5.70;;;4.60;;
17753;SDS011;8999;48.994;9.150;2022-08-19T10:39:13;7.68;;;5.10;;
17753;SDS011;8999;48.994;9.150;2022-08-19T10:41:45;8.70;;;5.45;;
17753;SDS011;8999;48.994;9.150;2022-08-19T10:44:16;6.55;;;5.75;;
17753;SDS011;8999;48.994;9.150;2022-08-19T10:46:48;7.18;;;5.82;;
17753;SDS011;8999;48.994;9.150;2022-08-19T10:49:20;6.10;;;5.45;;
17753;SDS011;8999;48.994;9.150;2022-08-19T10:51:54;8.20;;;5.75;;
17753;SDS011;8999;48.994;9.150;2022-08-19T10:54:43;6.53;;;5.72;;
17753;SDS011;8999;48.994;9.150;2022-08-19T10:57:32;9.93;;;5.93;;
17753;SDS011;8999;48.994;9.150;2022-08-19T11:00:04;6.38;;;5.78;;
17753;SDS011;8999;48.994;9.150;2022-08-19T11:02:37;9.32;;;6.18;;
17753;SDS011;8999;48.994;9.150;2022-08-19T11:05:09;7.18;;;5.95;;
17753;SDS011;8999;48.994;9.150;2022-08-19T11:07:43;6.90;;;6.20;;
17753;SDS011;8999;48.994;9.150;2022-08-19T11:10:15;10.20;;;7.35;;
17753;SDS011;8999;48.994;9.150;2022-08-19T11:12:49;8.40;;;6.25;;
17753;SDS011;8999;48.994;9.150;2022-08-19T11:15:23;8.43;;;6.45;;
17753;SDS011;8999;48.994;9.150;2022-08-19T11:17:55;8.73;;;6.07;;
17753;SDS011;8999;48.994;9.150;2022-08-19T11:20:26;8.82;;;6.93;;
17753;SDS011;8999;48.994;9.150;2022-08-19T11:23:00;9.18;;;6.95;;
17753;SDS011;8999;48.994;9.150;2022-08-19T11:25:32;12.48;;;7.18;;
17753;SDS011;8999;48.994;9.150;2022-08-19T11:28:04;7.90;;;6.30;;
17753;SDS011;8999;48.994;9.150;2022-08-19T11:30:36;8.18;;;6.30;;
17753;SDS011;8999;48.994;9.150;2022-08-19T11:33:08;10.43;;;6.50;;
17753;SDS011;8999;48.994;9.150;2022-08-19T11:35:40;7.95;;;6.30;;
17753;SDS011;8999;48.994;9.150;2022-08-19T11:38:13;8.05;;;7.25;;
17753;SDS011;8999;48.994;9.150;2022-08-19T11:40:53;11.98;;;7.43;;
17753;SDS011;8999;48.994;9.150;2022-08-19T11:43:25;10.02;;;8.18;;
17753;SDS011;8999;48.994;9.150;2022-08-19T11:45:57;10.20;;;7.50;;
17753;SDS011;8999;48.994;9.150;2022-08-19T11:48:29;8.48;;;7.20;;
17753;SDS011;8999;48.994;9.150;2022-08-19T11:51:02;9.73;;;7.13;;
17753;SDS011;8999;48.994;9.150;2022-08-19T11:53:38;11.13;;;7.70;;
17753;SDS011;8999;48.994;9.150;2022-08-19T11:56:10;8.20;;;6.50;;
17753;SDS011;8999;48.994;9.150;2022-08-19T11:58:42;7.43;;;6.65;;
17753;SDS011;8999;48.994;9.150;2022-08-19T12:01:15;8.68;;;6.10;;
17753;SDS011;8999;48.994;9.150;2022-08-19T12:03:49;6.82;;;6.10;;
17753;SDS011;8999;48.994;9.150;2022-08-19T12:06:22;9.05;;;6.45;;
17753;SDS011;8999;48.994;9.150;2022-08-19T12:08:57;8.20;;;6.63;;
17753;SDS011;8999;48.994;9.150;2022-08-19T12:11:29;8.18;;;6.93;;
17753;SDS011;8999;48.994;9.150;2022-08-19T12:14:01;8.07;;;6.70;;
17753;SDS011;8999;48.994;9.150;2022-08-19T12:16:33;8.48;;;7.03;;
17753;SDS011;8999;48.994;9.150;2022-08-19T12:19:05;6.72;;;6.10;;
17753;SDS011;8999;48.994;9.150;2022-08-19T12:21:37;6.50;;;5.90;;
17753;SDS011;8999;48.994;9.150;2022-08-19T12:24:09;8.45;;;6.70;;
17753;SDS011;8999;48.994;9.150;2022-08-19T12:26:41;12.85;;;10.77;;
17753;SDS011;8999;48.994;9.150;2022-08-19T12:29:13;6.85;;;5.97;;
17753;SDS011;8999;48.994;9.150;2022-08-19T12:31:44;9.75;;;8.02;;
17753;SDS011;8999;48.994;9.150;2022-08-19T12:34:16;5.75;;;5.18;;
17753;SDS011;8999;48.994;9.150;2022-08-19T12:36:49;6.65;;;5.20;;
17753;SDS011;8999;48.994;9.150;2022-08-19T12:39:23;5.55;;;5.05;;
17753;SDS011;8999;48.994;9.150;2022-08-19T12:41:54;5.90;;;4.95;;
17753;SDS011;8999;48.994;9.150;2022-08-19T12:44:26;6.10;;;4.65;;
17753;SDS011;8999;48.994;9.150;2022-08-19T12:46:58;5.68;;;5.03;;
17753;SDS011;8999;48.994;9.150;2022-08-19T12:49:30;6.55;;;4.80;;
17753;SDS011;8999;48.994;9.150;2022-08-19T12:52:03;5.20;;;4.68;;
17753;SDS011;8999;48.994;9.150;2022-08-19T12:54:37;5.88;;;5.15;;
17753;SDS011;8999;48.994;9.150;2022-08-19T12:57:09;7.78;;;5.95;;
17753;SDS011;8999;48.994;9.150;2022-08-19T12:59:42;11.05;;;9.05;;
17753;SDS011;8999;48.994;9.150;2022-08-19T13:02:13;15.02;;;11.85;;
17753;SDS011;8999;48.994;9.150;2022-08-19T13:04:45;8.70;;;5.18;;
17753;SDS011;8999;48.994;9.150;2022-08-19T13:07:17;6.70;;;5.18;;
17753;SDS011;8999;48.994;9.150;2022-08-19T13:09:52;23.63;;;5.10;;
17753;SDS011;8999;48.994;9.150;2022-08-19T13:12:23;41.25;;;15.90;;
17753;SDS011;8999;48.994;9.150;2022-08-19T13:14:56;10.93;;;5.13;;
17753;SDS011;8999;48.994;9.150;2022-08-19T13:17:28;22.10;;;14.82;;
17753;SDS011;8999;48.994;9.150;2022-08-19T13:20:00;11.00;;;6.85;;
17753;SDS011;8999;48.994;9.150;2022-08-19T13:22:32;12.13;;;5.72;;
17753;SDS011;8999;48.994;9.150;2022-08-19T13:25:05;7.20;;;5.05;;
17753;SDS011;8999;48.994;9.150;2022-08-19T13:27:38;4.60;;;4.20;;
17753;SDS011;8999;48.994;9.150;2022-08-19T13:30:11;8.18;;;4.50;;
17753;SDS011;8999;48.994;9.150;2022-08-19T13:33:01;9.02;;;5.20;;
17753;SDS011;8999;48.994;9.150;2022-08-19T13:35:45;6.95;;;4.90;;
17753;SDS011;8999;48.994;9.150;2022-08-19T13:38:19;6.88;;;4.88;;
17753;SDS011;8999;48.994;9.150;2022-08-19T13:40:54;9.45;;;4.60;;
17753;SDS011;8999;48.994;9.150;2022-08-19T13:43:26;12.00;;;6.00;;
17753;SDS011;8999;48.994;9.150;2022-08-19T13:45:57;7.53;;;5.03;;
17753;SDS011;8999;48.994;9.150;2022-08-19T13:48:30;9.43;;;5.38;;
17753;SDS011;8999;48.994;9.150;2022-08-19T13:51:01;6.47;;;4.80;;
17753;SDS011;8999;48.994;9.150;2022-08-19T13:53:36;9.52;;;4.85;;
17753;SDS011;8999;48.994;9.150;2022-08-19T13:56:11;6.75;;;4.80;;
17753;SDS011;8999;48.994;9.150;2022-08-19T13:58:43;6.35;;;5.07;;
17753;SDS011;8999;48.994;9.150;2022-08-19T14:01:18;5.68;;;4.60;;
17753;SDS011;8999;48.994;9.150;2022-08-19T14:03:51;7.30;;;4.43;;
17753;SDS011;8999;48.994;9.150;2022-08-19T14:06:23;8.18;;;4.80;;
17753;SDS011;8999;48.994;9.150;2022-08-19T14:08:55;6.97;;;4.70;;
17753;SDS011;8999;48.994;9.150;2022-08-19T14:11:28;7.57;;;5.15;;
17753;SDS011;8999;48.994;9.150;2022-08-19T14:14:00;6.63;;;5.47;;
17753;SDS011;8999;48.994;9.150;2022-08-19T14:16:32;5.68;;;5.18;;
17753;SDS011;8999;48.994;9.150;2022-08-19T14:19:03;5.45;;;4.95;;
17753;SDS011;8999;48.994;9.150;2022-08-19T14:21:37;5.55;;;5.05;;
17753;SDS011;8999;48.994;9.150;2022-08-19T14:24:11;6.57;;;5.50;;
17753;SDS011;8999;48.994;9.150;2022-08-19T14:26:44;5.97;;;4.90;;
17753;SDS011;8999;48.994;9.150;2022-08-19T14:29:16;5.22;;;4.70;;
17753;SDS011;8999;48.994;9.150;2022-08-19T14:31:47;5.22;;;4.80;;
17753;SDS011;8999;48.994;9.150;2022-08-19T14:34:19;6.45;;;5.25;;
17753;SDS011;8999;48.994;9.150;2022-08-19T14:36:52;4.97;;;4.47;;
17753;SDS011;8999;48.994;9.150;2022-08-19T14:39:24;6.22;;;4.93;;
17753;SDS011;8999;48.994;9.150;2022-08-19T14:41:57;6.90;;;5.10;;
17753;SDS011;8999;48.994;9.150;2022-08-19T14:44:29;9.88;;;8.88;;
17753;SDS011;8999;48.994;9.150;2022-08-19T14:47:03;7.13;;;5.07;;
17753;SDS011;8999;48.994;9.150;2022-08-19T14:49:37;6.07;;;4.93;;
17753;SDS011;8999;48.994;9.150;2022-08-19T14:52:09;7.97;;;4.53;;
17753;SDS011;8999;48.994;9.150;2022-08-19T14:54:41;7.88;;;4.97;;
17753;SDS011;8999;48.994;9.150;2022-08-19T14:57:14;7.70;;;5.90;;
17753;SDS011;8999;48.994;9.150;2022-08-19T14:59:46;8.93;;;5.72;;
17753;SDS011;8999;48.994;9.150;2022-08-19T15:02:18;7.20;;;5.88;;
17753;SDS011;8999;48.994;9.150;2022-08-19T15:04:50;7.28;;;6.28;;
17753;SDS011;8999;48.994;9.150;2022-08-19T15:07:22;8.27;;;6.80;;
17753;SDS011;8999;48.994;9.150;2022-08-19T15:09:54;9.20;;;6.38;;
17753;SDS011;8999;48.994;9.150;2022-08-19T15:12:27;7.15;;;6.03;;
17753;SDS011;8999;48.994;9.150;2022-08-19T15:14:59;6.93;;;5.93;;
17753;SDS011;8999;48.994;9.150;2022-08-19T15:17:30;7.13;;;6.05;;
17753;SDS011;8999;48.994;9.150;2022-08-19T15:20:03;8.00;;;5.72;;